createdAt,value
2022-08-24T00:00:16.181Z,23.11
2022-08-24T00:02:43.908Z,23.08
2022-08-24T00:05:14.578Z,22.79
2022-08-24T00:07:42.287Z,23.06
2022-08-24T00:10:10.284Z,23.23
2022-08-24T00:12:37.678Z,22.61
2022-08-24T00:15:06.049Z,23.04
2022-08-24T00:17:34.304Z,23.47
2022-08-24T00:20:02.650Z,23.05
2022-08-24T00:22:29.958Z,22.99
2022-08-24T00:24:57.592Z,22.99
2022-08-24T00:27:25.067Z,23.30
2022-08-24T00:29:52.286Z,23.17
2022-08-24T00:32:19.910Z,22.65
2022-08-24T00:34:47.764Z,22.45
2022-08-24T00:37:27.443Z,22.32
2022-08-24T00:39:54.805Z,23.16
2022-08-24T00:42:22.165Z,22.47
2022-08-24T00:44:49.747Z,22.69
2022-08-24T00:47:18.877Z,22.80
2022-08-24T00:49:50.039Z,22.67
2022-08-24T00:52:20.576Z,22.34
2022-08-24T00:54:58.920Z,22.45
2022-08-24T00:57:28.176Z,22.44
2022-08-24T00:59:56.893Z,22.17
2022-08-24T01:02:25.483Z,22.22
2022-08-24T01:04:58.218Z,22.24
2022-08-24T01:07:28.572Z,21.89
2022-08-24T01:09:57.090Z,21.84
2022-08-24T01:12:24.560Z,22.00
2022-08-24T01:14:51.789Z,22.27
2022-08-24T01:17:38.775Z,22.04
2022-08-24T01:20:07.694Z,22.03
2022-08-24T01:22:41.387Z,22.40
2022-08-24T01:25:09.352Z,22.92
2022-08-24T01:27:37.467Z,22.63
2022-08-24T01:30:06.283Z,22.36
2022-08-24T01:32:33.927Z,22.81
2022-08-24T01:35:01.585Z,23.04
2022-08-24T01:37:28.836Z,22.68
2022-08-24T01:39:56.643Z,22.07
2022-08-24T01:42:29.847Z,22.69
2022-08-24T01:44:57.154Z,22.74
2022-08-24T01:47:24.403Z,22.89
2022-08-24T01:49:52.364Z,22.98
2022-08-24T01:52:21.719Z,22.64
2022-08-24T01:54:49.904Z,23.22
2022-08-24T01:57:20.472Z,23.23
2022-08-24T01:59:50.535Z,22.78
2022-08-24T02:02:18.554Z,22.96
2022-08-24T02:04:46.165Z,22.28
2022-08-24T02:07:14.017Z,22.18
2022-08-24T02:09:41.367Z,22.74
2022-08-24T02:12:09.195Z,22.91
2022-08-24T02:14:36.440Z,22.82
2022-08-24T02:17:04.838Z,22.81
2022-08-24T02:19:32.586Z,22.47
2022-08-24T02:22:00.527Z,22.88
2022-08-24T02:24:28.429Z,23.01
2022-08-24T02:26:56.181Z,22.50
2022-08-24T02:29:24.097Z,22.89
2022-08-24T02:31:51.411Z,22.95
2022-08-24T02:34:18.920Z,22.13
2022-08-24T02:36:46.773Z,22.25
2022-08-24T02:39:14.060Z,21.60
2022-08-24T02:41:41.904Z,21.70
2022-08-24T02:44:09.367Z,21.44
2022-08-24T02:46:36.973Z,21.48
2022-08-24T02:49:10.640Z,22.09
2022-08-24T02:51:44.156Z,22.13
2022-08-24T02:54:13.544Z,21.83
2022-08-24T02:56:40.749Z,22.07
2022-08-24T02:59:08.011Z,21.49
2022-08-24T03:01:36.005Z,21.56
2022-08-24T03:04:03.662Z,22.00
2022-08-24T03:06:30.977Z,22.20
2022-08-24T03:08:58.477Z,21.82
2022-08-24T03:11:28.288Z,21.54
2022-08-24T03:13:56.928Z,21.71
2022-08-24T03:16:24.790Z,21.63
2022-08-24T03:18:52.299Z,21.89
2022-08-24T03:21:19.633Z,22.00
2022-08-24T03:23:47.414Z,21.44
2022-08-24T03:26:14.834Z,21.72
2022-08-24T03:28:42.321Z,21.54
2022-08-24T03:31:13.265Z,21.48
2022-08-24T03:33:40.656Z,21.86
2022-08-24T03:36:12.442Z,21.77
2022-08-24T03:38:42.017Z,21.85
2022-08-24T03:41:09.615Z,22.52
2022-08-24T03:43:47.399Z,22.09
2022-08-24T03:46:17.089Z,22.19
2022-08-24T03:48:44.755Z,21.99
2022-08-24T03:51:13.133Z,22.19
2022-08-24T03:53:42.926Z,22.23
2022-08-24T03:56:11.262Z,21.99
2022-08-24T03:58:39.181Z,22.03
2022-08-24T04:01:06.816Z,22.35
2022-08-24T04:03:41.623Z,22.14
2022-08-24T04:06:09.326Z,22.50
2022-08-24T04:08:40.724Z,22.00
2022-08-24T04:11:16.784Z,22.56
2022-08-24T04:13:44.860Z,22.73
2022-08-24T04:16:13.889Z,22.83
2022-08-24T04:18:41.967Z,22.63
2022-08-24T04:21:20.432Z,22.67
2022-08-24T04:23:48.140Z,22.91
2022-08-24T04:26:16.607Z,23.02
2022-08-24T04:29:00.130Z,22.28
2022-08-24T04:31:28.656Z,22.92
2022-08-24T04:33:56.102Z,22.97
2022-08-24T04:36:23.420Z,23.00
2022-08-24T04:38:50.961Z,22.72
2022-08-24T04:41:31.002Z,23.23
2022-08-24T04:43:59.919Z,23.04
2022-08-24T04:46:27.624Z,23.14
2022-08-24T04:48:55.315Z,23.28
2022-08-24T04:51:22.888Z,22.79
2022-08-24T04:53:50.583Z,23.35
2022-08-24T04:56:20.151Z,22.65
2022-08-24T04:58:47.902Z,22.73
2022-08-24T05:01:16.698Z,23.15
2022-08-24T05:03:45.892Z,22.80
2022-08-24T05:06:15.525Z,22.76
2022-08-24T05:08:43.473Z,23.11
2022-08-24T05:11:11.433Z,23.46
2022-08-24T05:13:38.965Z,23.55
2022-08-24T05:16:07.449Z,23.98
2022-08-24T05:18:34.856Z,24.01
2022-08-24T05:21:02.484Z,23.46
2022-08-24T05:23:31.021Z,23.97
2022-08-24T05:26:05.992Z,23.60
2022-08-24T05:28:35.485Z,23.71
2022-08-24T05:31:11.116Z,24.03
2022-08-24T05:33:39.137Z,24.25
2022-08-24T05:36:14.407Z,23.76
2022-08-24T05:38:42.116Z,24.27
2022-08-24T05:41:10.102Z,24.07
2022-08-24T05:43:37.587Z,24.54
2022-08-24T05:46:05.327Z,25.06
2022-08-24T05:48:34.923Z,25.00
2022-08-24T05:51:04.852Z,25.25
2022-08-24T05:53:33.605Z,25.21
2022-08-24T05:56:03.249Z,25.39
2022-08-24T05:58:31.163Z,25.04
2022-08-24T06:01:00.090Z,25.53
2022-08-24T06:03:27.884Z,25.27
2022-08-24T06:05:55.721Z,25.20
2022-08-24T06:08:23.829Z,25.16
2022-08-24T06:10:51.500Z,25.03
2022-08-24T06:13:19.012Z,24.83
2022-08-24T06:16:04.803Z,24.76
2022-08-24T06:18:34.498Z,24.87
2022-08-24T06:21:06.418Z,25.04
2022-08-24T06:23:34.178Z,25.07
2022-08-24T06:26:23.247Z,25.18
2022-08-24T06:28:52.213Z,25.41
2022-08-24T06:31:20.319Z,24.96
2022-08-24T06:33:48.007Z,25.06
2022-08-24T06:36:15.598Z,25.39
2022-08-24T06:38:45.434Z,25.52
2022-08-24T06:41:14.633Z,25.05
2022-08-24T06:43:42.183Z,25.54
2022-08-24T06:46:09.838Z,25.82
2022-08-24T06:48:39.317Z,26.02
2022-08-24T06:51:09.567Z,25.85
2022-08-24T06:53:38.853Z,25.56
2022-08-24T06:56:07.511Z,26.02
2022-08-24T06:58:35.786Z,26.06
2022-08-24T07:01:18.053Z,26.22
2022-08-24T07:03:46.366Z,26.10
2022-08-24T07:06:15.265Z,26.28
2022-08-24T07:08:42.933Z,25.94
2022-08-24T07:11:11.188Z,25.93
2022-08-24T07:13:39.058Z,26.22
2022-08-24T07:16:06.821Z,26.38
2022-08-24T07:18:35.046Z,25.73
2022-08-24T07:21:02.550Z,26.32
2022-08-24T07:23:41.986Z,26.14
2022-08-24T07:26:12.558Z,26.53
2022-08-24T07:28:53.087Z,26.68
2022-08-24T07:31:21.508Z,26.68
2022-08-24T07:33:49.610Z,26.74
2022-08-24T07:36:22.473Z,26.78
2022-08-24T07:38:52.438Z,26.97
2022-08-24T07:41:40.282Z,26.96
2022-08-24T07:44:08.984Z,27.04
2022-08-24T07:46:36.483Z,27.04
2022-08-24T07:49:12.465Z,27.05
2022-08-24T07:51:48.539Z,27.34
2022-08-24T07:54:15.936Z,27.07
2022-08-24T07:56:43.388Z,27.15
2022-08-24T07:59:13.196Z,26.82
2022-08-24T08:01:41.615Z,27.36
2022-08-24T08:04:10.477Z,26.79
2022-08-24T08:06:37.743Z,26.95
2022-08-24T08:09:05.660Z,26.55
2022-08-24T08:11:33.275Z,27.14
2022-08-24T08:14:00.560Z,26.57
2022-08-24T08:16:28.029Z,26.87
2022-08-24T08:19:11.524Z,27.18
2022-08-24T08:22:01.779Z,27.22
2022-08-24T08:24:30.837Z,27.38
2022-08-24T08:26:58.272Z,27.02
2022-08-24T08:29:26.259Z,26.92
2022-08-24T08:31:54.192Z,26.93
2022-08-24T08:34:21.571Z,27.06
2022-08-24T08:36:49.227Z,27.06
2022-08-24T08:39:17.602Z,27.05
2022-08-24T08:41:52.480Z,26.87
2022-08-24T08:44:39.906Z,26.79
2022-08-24T08:47:26.036Z,27.05
2022-08-24T08:49:56.608Z,26.56
2022-08-24T08:52:36.956Z,26.92
2022-08-24T08:55:16.574Z,27.12
2022-08-24T08:57:51.304Z,27.18
2022-08-24T09:00:22.397Z,27.22
2022-08-24T09:03:27.030Z,27.14
2022-08-24T09:06:12.966Z,26.57
2022-08-24T09:09:04.734Z,27.07
2022-08-24T09:11:36.031Z,27.08
2022-08-24T09:14:03.371Z,27.55
2022-08-24T09:16:53.058Z,27.51
2022-08-24T09:19:26.016Z,27.45
2022-08-24T09:22:08.612Z,27.87
2022-08-24T09:24:39.136Z,27.82
2022-08-24T09:27:06.894Z,28.22
2022-08-24T09:29:46.635Z,28.49
2022-08-24T09:32:24.951Z,28.52
2022-08-24T09:34:59.738Z,28.25
2022-08-24T09:37:27.221Z,28.41
2022-08-24T09:40:00.380Z,28.43
2022-08-24T09:42:47.662Z,28.77
2022-08-24T09:45:30.318Z,28.92
2022-08-24T09:48:06.873Z,29.12
2022-08-24T09:50:41.290Z,28.95
2022-08-24T09:53:09.118Z,28.89
2022-08-24T09:55:36.404Z,28.46
2022-08-24T09:58:08.119Z,28.89
2022-08-24T10:00:44.649Z,28.45
2022-08-24T10:03:27.366Z,28.93
2022-08-24T10:06:22.816Z,28.72
2022-08-24T10:09:02.612Z,29.10
2022-08-24T10:11:33.007Z,29.15
2022-08-24T10:14:22.928Z,29.10
2022-08-24T10:17:02.845Z,29.16
2022-08-24T10:19:49.235Z,28.96
2022-08-24T10:22:16.597Z,28.63
2022-08-24T10:25:22.573Z,28.77
2022-08-24T10:28:10.467Z,29.04
2022-08-24T10:30:40.776Z,28.84
2022-08-24T10:33:19.591Z,28.95
2022-08-24T10:35:53.263Z,29.18
2022-08-24T10:38:40.795Z,29.23
2022-08-24T10:41:20.802Z,29.21
2022-08-24T10:44:07.485Z,28.89
2022-08-24T10:46:38.956Z,28.56
2022-08-24T10:49:24.899Z,28.63
2022-08-24T10:52:13.752Z,28.89
2022-08-24T10:54:41.324Z,28.94
2022-08-24T10:57:15.335Z,28.71
2022-08-24T11:00:01.807Z,28.86
2022-08-24T11:02:30.602Z,29.10
2022-08-24T11:04:59.476Z,28.61
2022-08-24T11:07:27.063Z,28.52
2022-08-24T11:09:58.684Z,28.81
2022-08-24T11:12:26.379Z,28.97
2022-08-24T11:14:54.893Z,28.97
2022-08-24T11:17:23.769Z,27.97
2022-08-24T11:19:51.391Z,28.51
2022-08-24T11:22:41.094Z,28.78
2022-08-24T11:25:16.491Z,28.96
2022-08-24T11:27:46.030Z,28.85
2022-08-24T11:30:19.668Z,28.51
2022-08-24T11:32:50.268Z,28.93
2022-08-24T11:35:17.795Z,28.96
2022-08-24T11:37:45.553Z,28.79
2022-08-24T11:40:13.217Z,28.55
2022-08-24T11:42:53.487Z,28.82
2022-08-24T11:45:23.607Z,28.27
2022-08-24T11:48:12.421Z,28.25
2022-08-24T11:50:41.135Z,27.84
2022-08-24T11:56:16.326Z,27.29
2022-08-24T11:58:45.021Z,26.58
2022-08-24T12:01:15.095Z,26.73
2022-08-24T12:03:49.382Z,25.92
2022-08-24T12:06:19.724Z,25.49
2022-08-24T12:08:51.479Z,24.97
2022-08-24T12:11:26.481Z,25.79
2022-08-24T12:14:00.036Z,25.84
2022-08-24T12:16:33.905Z,25.88
2022-08-24T12:19:27.656Z,24.96
2022-08-24T12:21:55.903Z,25.39
2022-08-24T12:24:26.635Z,25.33
2022-08-24T12:26:57.306Z,25.63
2022-08-24T12:29:29.597Z,25.69
2022-08-24T12:31:57.648Z,25.53
2022-08-24T12:34:28.518Z,25.62
2022-08-24T12:37:04.797Z,25.96
2022-08-24T12:39:45.372Z,26.08
2022-08-24T12:42:16.902Z,26.14
2022-08-24T12:44:49.725Z,26.00
2022-08-24T12:47:46.442Z,25.96
2022-08-24T12:50:16.494Z,26.08
2022-08-24T12:52:53.346Z,26.07
2022-08-24T12:55:32.900Z,26.30
2022-08-24T12:58:31.023Z,26.02
2022-08-24T13:00:55.467Z,26.26
2022-08-24T13:03:24.876Z,26.20
2022-08-24T13:05:54.206Z,26.40
2022-08-24T13:08:24.825Z,26.25
2022-08-24T13:10:53.502Z,26.38
2022-08-24T13:13:22.086Z,26.39
2022-08-24T13:15:52.591Z,26.28
2022-08-24T13:18:19.881Z,26.41
2022-08-24T13:20:50.048Z,26.53
2022-08-24T13:23:19.134Z,26.43
2022-08-24T13:25:52.675Z,26.63
2022-08-24T13:28:20.553Z,26.68
2022-08-24T13:30:54.310Z,26.71
2022-08-24T13:33:40.592Z,26.85
2022-08-24T13:36:26.728Z,26.87
2022-08-24T13:38:56.978Z,26.98
2022-08-24T13:41:37.378Z,26.88
2022-08-24T13:44:08.141Z,26.96
2022-08-24T13:47:04.957Z,26.99
2022-08-24T13:49:47.621Z,27.12
2022-08-24T13:52:30.357Z,27.15
2022-08-24T13:55:04.402Z,27.20
2022-08-24T13:57:35.550Z,27.20
2022-08-24T14:00:13.122Z,27.24
2022-08-24T14:03:00.079Z,27.26
2022-08-24T14:05:30.475Z,27.24
2022-08-24T14:08:10.460Z,27.18
2022-08-24T14:10:51.902Z,27.22
2022-08-24T14:13:31.213Z,27.22
2022-08-24T14:16:17.280Z,27.24
2022-08-24T14:19:05.112Z,27.25
2022-08-24T14:21:36.048Z,27.28
2022-08-24T14:24:04.840Z,27.37
2022-08-24T14:26:36.844Z,27.42
2022-08-24T14:29:16.707Z,27.47
2022-08-24T14:31:52.825Z,27.49
2022-08-24T14:34:40.148Z,27.48
2022-08-24T14:37:13.341Z,27.41
2022-08-24T14:39:40.936Z,27.39
2022-08-24T14:42:17.561Z,27.39
2022-08-24T14:44:55.864Z,27.45
2022-08-24T14:47:26.750Z,27.51
2022-08-24T14:50:13.361Z,27.53
2022-08-24T14:52:40.833Z,27.53
2022-08-24T14:55:25.485Z,27.49
2022-08-24T14:57:53.348Z,27.56
2022-08-24T15:00:22.000Z,27.61
2022-08-24T15:02:52.037Z,27.48
2022-08-24T15:05:22.924Z,27.40
2022-08-24T15:07:56.791Z,27.49
2022-08-24T15:10:26.552Z,27.56
2022-08-24T15:13:01.402Z,27.60
2022-08-24T15:15:34.112Z,27.64
2022-08-24T15:18:17.632Z,27.63
2022-08-24T15:21:03.797Z,27.60
2022-08-24T15:23:40.234Z,27.59
2022-08-24T15:26:08.439Z,27.59
2022-08-24T15:28:37.638Z,27.57
2022-08-24T15:31:23.829Z,27.66
2022-08-24T15:34:02.136Z,27.57
2022-08-24T15:36:30.347Z,27.69
2022-08-24T15:38:57.930Z,27.71
2022-08-24T15:41:33.150Z,27.54
2022-08-24T15:44:03.371Z,27.67
2022-08-24T15:46:38.075Z,27.36
2022-08-24T15:49:08.180Z,27.66
2022-08-24T15:51:54.262Z,27.66
2022-08-24T15:54:31.137Z,27.71
2022-08-24T15:57:00.725Z,27.68
2022-08-24T15:59:50.154Z,27.70
2022-08-24T16:02:33.271Z,27.71
2022-08-24T16:05:21.457Z,27.68
2022-08-24T16:07:57.888Z,27.70
2022-08-24T16:10:30.355Z,27.69
2022-08-24T16:13:06.988Z,27.68
2022-08-24T16:15:34.542Z,27.66
2022-08-24T16:18:01.964Z,27.67
2022-08-24T16:20:31.739Z,27.61
2022-08-24T16:23:01.037Z,27.64
2022-08-24T16:25:42.775Z,27.67
2022-08-24T16:28:11.432Z,27.66
2022-08-24T16:30:41.239Z,27.68
2022-08-24T16:33:09.424Z,27.69
2022-08-24T16:35:37.029Z,27.70
2022-08-24T16:38:04.520Z,27.62
2022-08-24T16:40:35.069Z,27.62
2022-08-24T16:43:03.233Z,27.68
2022-08-24T16:45:34.048Z,27.51
2022-08-24T16:48:03.833Z,27.54
2022-08-24T16:50:31.174Z,27.61
2022-08-24T16:52:58.446Z,27.57
2022-08-24T16:55:28.459Z,27.58
2022-08-24T16:57:55.876Z,27.61
2022-08-24T17:00:23.113Z,27.56
2022-08-24T17:02:50.687Z,27.57
2022-08-24T17:05:18.064Z,27.56
2022-08-24T17:07:45.370Z,27.56
2022-08-24T17:10:14.075Z,27.53
2022-08-24T17:12:41.628Z,27.56
2022-08-24T17:15:09.483Z,27.54
2022-08-24T17:17:38.252Z,27.51
2022-08-24T17:20:06.796Z,27.49
2022-08-24T17:22:34.089Z,27.45
2022-08-24T17:25:01.677Z,27.41
2022-08-24T17:27:30.746Z,27.37
2022-08-24T17:29:59.211Z,27.35
2022-08-24T17:32:26.824Z,27.29
2022-08-24T17:34:54.595Z,27.25
2022-08-24T17:37:21.920Z,27.17
2022-08-24T17:39:56.556Z,27.15
2022-08-24T17:45:13.094Z,27.16
2022-08-24T17:47:40.875Z,27.08
2022-08-24T17:50:10.364Z,27.05
2022-08-24T17:52:38.486Z,27.05
2022-08-24T17:55:09.659Z,27.05
2022-08-24T17:57:37.179Z,27.04
2022-08-24T18:00:05.819Z,27.03
2022-08-24T18:02:39.640Z,27.00
2022-08-24T18:05:08.507Z,26.97
2022-08-24T18:07:52.544Z,26.97
2022-08-24T18:10:25.828Z,26.99
2022-08-24T18:12:53.361Z,26.93
2022-08-24T18:15:20.939Z,26.88
2022-08-24T18:17:50.057Z,26.86
2022-08-24T18:20:21.025Z,26.84
2022-08-24T18:22:52.804Z,26.74
2022-08-24T18:25:23.262Z,26.67
2022-08-24T18:27:51.656Z,26.06
2022-08-24T18:30:24.408Z,26.21
2022-08-24T18:32:56.672Z,26.46
2022-08-24T18:35:24.477Z,26.53
2022-08-24T18:37:51.771Z,26.51
2022-08-24T18:40:21.347Z,26.51
2022-08-24T18:42:50.740Z,26.53
2022-08-24T18:45:18.571Z,26.56
2022-08-24T18:47:52.919Z,26.38
2022-08-24T18:50:23.988Z,26.43
2022-08-24T18:52:51.468Z,26.43
2022-08-24T18:55:26.025Z,26.45
2022-08-24T18:57:56.334Z,26.42
2022-08-24T19:00:23.994Z,26.31
2022-08-24T19:02:51.289Z,26.36
2022-08-24T19:05:23.175Z,26.38
2022-08-24T19:07:51.695Z,26.35
2022-08-24T19:10:21.311Z,26.32
2022-08-24T19:12:49.583Z,26.34
2022-08-24T19:15:35.894Z,26.34
2022-08-24T19:18:06.747Z,26.28
2022-08-24T19:20:35.408Z,26.26
2022-08-24T19:23:11.411Z,26.21
2022-08-24T19:25:45.166Z,26.06
2022-08-24T19:28:12.709Z,26.14
2022-08-24T19:30:42.169Z,26.23
2022-08-24T19:33:14.036Z,26.21
2022-08-24T19:35:44.527Z,26.21
2022-08-24T19:38:11.935Z,26.10
2022-08-24T19:40:39.333Z,26.04
2022-08-24T19:43:15.666Z,26.02
2022-08-24T19:46:02.216Z,26.00
2022-08-24T19:48:31.675Z,25.94
2022-08-24T19:51:00.381Z,25.87
2022-08-24T19:53:28.963Z,25.89
2022-08-24T19:55:59.545Z,25.92
2022-08-24T19:58:31.801Z,25.91
2022-08-24T20:01:03.663Z,25.92
2022-08-24T20:03:31.311Z,25.89
2022-08-24T20:05:59.007Z,25.82
2022-08-24T20:08:26.864Z,25.75
2022-08-24T20:10:58.672Z,25.81
2022-08-24T20:13:27.336Z,25.78
2022-08-24T20:15:55.571Z,25.77
2022-08-24T20:18:24.574Z,25.67
2022-08-24T20:20:52.362Z,25.63
2022-08-24T20:23:20.049Z,25.73
2022-08-24T20:25:47.883Z,25.67
2022-08-24T20:28:34.754Z,25.77
2022-08-24T20:31:03.287Z,25.65
2022-08-24T20:33:30.634Z,25.66
2022-08-24T20:35:57.907Z,25.66
2022-08-24T20:38:25.575Z,25.58
2022-08-24T20:40:56.688Z,25.63
2022-08-24T20:43:25.128Z,25.62
2022-08-24T20:45:52.835Z,25.63
2022-08-24T20:48:23.713Z,25.58
2022-08-24T20:50:50.925Z,25.44
2022-08-24T20:53:18.596Z,25.50
2022-08-24T20:55:46.011Z,25.48
2022-08-24T20:58:13.310Z,25.50
2022-08-24T21:00:44.389Z,25.50
2022-08-24T21:03:15.949Z,25.51
2022-08-24T21:05:43.691Z,25.47
2022-08-24T21:08:11.680Z,25.43
2022-08-24T21:10:39.203Z,25.45
2022-08-24T21:13:06.824Z,25.40
2022-08-24T21:15:34.156Z,25.38
2022-08-24T21:18:03.031Z,25.29
2022-08-24T21:20:30.595Z,25.25
2022-08-24T21:22:57.890Z,25.22
2022-08-24T21:25:25.196Z,25.14
2022-08-24T21:27:52.974Z,25.07
2022-08-24T21:30:21.058Z,25.09
2022-08-24T21:33:07.349Z,25.16
2022-08-24T21:35:35.160Z,25.16
2022-08-24T21:38:02.397Z,25.04
2022-08-24T21:40:30.028Z,24.94
2022-08-24T21:42:57.632Z,25.01
2022-08-24T21:45:25.864Z,24.94
2022-08-24T21:47:54.174Z,25.01
2022-08-24T21:50:25.580Z,24.97
2022-08-24T21:52:53.932Z,25.03
2022-08-24T21:55:21.769Z,25.06
2022-08-24T21:57:49.620Z,24.77
2022-08-24T22:00:18.605Z,24.77
2022-08-24T22:02:47.478Z,24.83
2022-08-24T22:05:15.681Z,24.98
2022-08-24T22:07:43.079Z,25.03
2022-08-24T22:10:12.015Z,25.06
2022-08-24T22:12:40.135Z,25.06
2022-08-24T22:15:08.530Z,25.08
2022-08-24T22:17:36.022Z,24.99
2022-08-24T22:20:05.532Z,25.01
2022-08-24T22:22:32.811Z,24.97
2022-08-24T22:25:00.827Z,24.96
2022-08-24T22:27:28.133Z,24.70
2022-08-24T22:29:55.842Z,24.78
2022-08-24T22:32:24.790Z,24.84
2022-08-24T22:34:52.152Z,24.91
2022-08-24T22:37:19.441Z,24.91
2022-08-24T22:39:46.957Z,24.77
2022-08-24T22:42:14.281Z,24.81
2022-08-24T22:44:41.562Z,24.63
2022-08-24T22:47:13.205Z,24.74
2022-08-24T22:49:45.666Z,24.82
2022-08-24T22:52:14.037Z,24.86
2022-08-24T22:54:41.453Z,24.80
2022-08-24T22:57:09.150Z,24.75
2022-08-24T22:59:38.044Z,24.75
2022-08-24T23:02:07.247Z,24.69
2022-08-24T23:04:35.981Z,24.56
2022-08-24T23:07:04.512Z,24.70
2022-08-24T23:09:38.160Z,24.53
2022-08-24T23:12:13.167Z,24.54
2022-08-24T23:14:41.606Z,24.66
2022-08-24T23:17:09.516Z,24.57
2022-08-24T23:19:55.663Z,24.62
2022-08-24T23:22:22.937Z,24.66
2022-08-24T23:24:50.569Z,24.71
2022-08-24T23:27:17.944Z,24.58
2022-08-24T23:29:46.005Z,24.57
2022-08-24T23:32:13.809Z,24.60
2022-08-24T23:34:48.323Z,24.67
2022-08-24T23:37:16.676Z,24.71
2022-08-24T23:39:44.217Z,24.69
2022-08-24T23:42:11.792Z,24.73
2022-08-24T23:44:39.440Z,24.74
2022-08-24T23:47:06.848Z,24.74
2022-08-24T23:49:34.268Z,24.77
2022-08-24T23:52:01.897Z,24.75
2022-08-24T23:54:29.322Z,24.61
2022-08-24T23:56:56.657Z,24.61
2022-08-24T23:59:27.758Z,24.62
